עמוד ראשי
METAR-TAF:

METAR-TAF

שדות תעופה :

אורפה, טורקיה

קו רוחב: 37-27N, קו אורך: 38-54E, גובה: 823מטר

תצפית מזג אוויר נוכחית

הדו"ח נערך לפני 1 שעות ו 7דקות, בשעה 11:50 UTC
רוח 10קשר מכיוון מערב/צפון-מערב, משתנה בין מערב ו צפון/צפון-מערב
טמפרטורת 40 צלסיוס
לחות 10%
לחץ 1006 hPa
ראות 10 קילומטר או יותר
ללא עננים שבסיסם נמוך מ 5000 רגל או קומולונימבוס

METAR: LTCS 251150Z 30010KT 260V330 CAVOK 40/02 Q1006

זמן: 15:57 (12:57 UTC)

תחזית

הדו"ח נערך לפני 2 שעות ו 17דקות, בשעה 10:40 UTC
תחזית בתוקף מ 25 ב 12 UTC עד 26 ב 12 UTC
רוח 12קשר מכיוון מערב
ראות 10 קילומטר או יותר
ללא עננים שבסיסם נמוך מ 5000 רגל או קומולונימבוס
יעשה מ
25 ב 18 UTC עד 25 ב 20 UTC
רוח 6קשר מכיוון צפון

TAF: LTCS 251040Z 2512/2612 28012KT CAVOK BECMG 2518/2520 35006KT

תצפיות ותחזיות מזג אוויר לגבי יותר מ- 4,000 שדות תעופה ברחבי העולם. דוחות METAR ו- TAF.

התחנות הזמינות מסומנות בנקודות צהובות ואדומות על גבי המפה.

העבר את העכבר לנקודה הצבעונית על מנת לראות את שם התחנה.

לאחר מכן, לחץ כדי לראות את תוכן ואת תחזיות מזג האוויר.

כדי לשנות את המפה: לחץ על הכפתורים הירוקים עם הפלוס השחור כדי להתקרב; על הכפתור הירוק עם המקף כדי להתרחק; או בחיצים הירוקים למפות סמוכות.


METAR-TAF: